| time (UTC) | temp F | wind direction | speed MPH | gust MPH | rain 1hr in | rain 24hr in | rain mn in | humidity % | barometer mb |
| 20260508224541 | 70 | 0 | 0.0 | 1.0 | 0.00 | 0.00 | 0.00 | 54 | 1014.2 |
| 20260508223040 | 70 | 0 | 0.0 | 2.0 | 0.00 | 0.00 | 0.00 | 52 | 1014.5 |
| 20260508221546 | 71 | 0 | 0.0 | 4.0 | 0.00 | 0.00 | 0.00 | 50 | 1014.4 |
| 20260508220050 | 71 | 0 | 0.0 | 2.0 | 0.00 | 0.00 | 0.00 | 49 | 1014.3 |
| 20260508214547 | 72 | 0 | 1.0 | 3.0 | 0.00 | 0.00 | 0.00 | 48 | 1014.3 |
| 20260508213040 | 72 | 0 | 0.0 | 3.0 | 0.00 | 0.00 | 0.00 | 45 | 1014.2 |
| 20260508211543 | 71 | 128 | 1.0 | 4.0 | 0.00 | 0.00 | 0.00 | 47 | 1014.2 |
| 20260508210057 | 71 | 0 | 1.0 | 4.0 | 0.00 | 0.00 | 0.00 | 44 | 1014.4 |
| 20260508204539 | 72 | 5 | 0.0 | 4.0 | 0.00 | 0.00 | 0.00 | 43 | 1014.5 |
| 20260508203040 | 72 | 167 | 1.0 | 4.0 | 0.00 | 0.00 | 0.00 | 43 | 1014.5 |
| 20260508201544 | 72 | 329 | 0.0 | 4.0 | 0.00 | 0.00 | 0.00 | 43 | 1014.6 |
| 20260508200047 | 72 | 346 | 1.0 | 4.0 | 0.00 | 0.00 | 0.00 | 42 | 1014.7 |
| 20260508194546 | 72 | 360 | 2.0 | 5.0 | 0.00 | 0.00 | 0.00 | 43 | 1014.7 |
| 20260508193045 | 72 | 0 | 0.0 | 4.0 | 0.00 | 0.00 | 0.00 | 42 | 1015.3 |
| 20260508191546 | 71 | 98 | 0.0 | 4.0 | 0.00 | 0.00 | 0.00 | 44 | 1015.6 |
| 20260508190053 | 71 | 57 | 2.0 | 4.0 | 0.00 | 0.00 | 0.00 | 43 | 1015.6 |
| 20260508184556 | 71 | 32 | 2.0 | 8.0 | 0.00 | 0.00 | 0.00 | 44 | 1016.0 |
| 20260508183040 | 70 | 12 | 2.0 | 8.0 | 0.00 | 0.00 | 0.00 | 43 | 1016.2 |
| 20260508181558 | 69 | 307 | 1.0 | 6.0 | 0.00 | 0.00 | 0.00 | 48 | 1016.3 |
| 20260508180046 | 69 | 5 | 1.0 | 6.0 | 0.00 | 0.00 | 0.00 | 46 | 1016.2 |
| 20260508174546 | 69 | 355 | 2.0 | 9.0 | 0.00 | 0.04 | 0.00 | 45 | 1016.5 |
| 20260508173046 | 69 | 0 | 4.0 | 12.0 | 0.00 | 0.04 | 0.00 | 47 | 1016.6 |
| 20260508171541 | 69 | 11 | 2.0 | 5.0 | 0.00 | 0.04 | 0.00 | 47 | 1016.8 |
| 20260508170045 | 69 | 26 | 2.0 | 8.0 | 0.00 | 0.04 | 0.00 | 50 | 1016.8 |
| 20260508164558 | 68 | 348 | 6.0 | 11.0 | 0.00 | 0.22 | 0.00 | 49 | 1017.0 |
| 20260508163039 | 68 | 355 | 5.0 | 11.0 | 0.00 | 0.22 | 0.00 | 49 | 1017.5 |
| 20260508161548 | 67 | 23 | 3.0 | 7.0 | 0.00 | 0.22 | 0.00 | 54 | 1017.4 |
| 20260508160043 | 67 | 343 | 1.0 | 8.0 | 0.00 | 0.22 | 0.00 | 56 | 1017.6 |
| 20260508154543 | 66 | 342 | 4.0 | 9.0 | 0.00 | 0.36 | 0.00 | 54 | 1017.9 |
| 20260508153041 | 66 | 5 | 5.0 | 10.0 | 0.00 | 0.36 | 0.00 | 54 | 1017.9 |
| 20260508151541 | 66 | 337 | 5.0 | 10.0 | 0.00 | 0.36 | 0.00 | 55 | 1017.8 |
| 20260508150040 | 66 | 23 | 3.0 | 11.0 | 0.00 | 0.36 | 0.00 | 57 | 1018.0 |
| 20260508144604 | 66 | 38 | 4.0 | 9.0 | 0.00 | 0.36 | 0.00 | 57 | 1018.0 |
| 20260508143040 | 65 | 265 | 4.0 | 10.0 | 0.00 | 0.36 | 0.00 | 59 | 1017.7 |
| 20260508141551 | 65 | 318 | 3.0 | 8.0 | 0.00 | 0.36 | 0.00 | 62 | 1017.7 |
| 20260508140048 | 64 | 345 | 4.0 | 11.0 | 0.00 | 0.36 | 0.00 | 63 | 1017.8 |
| 20260508134544 | 64 | 360 | 4.0 | 12.0 | 0.00 | 0.36 | 0.00 | 64 | 1017.9 |
| 20260508133110 | 63 | 346 | 5.0 | 11.0 | 0.00 | 0.36 | 0.00 | 64 | 1017.7 |
| 20260508131548 | 62 | 332 | 4.0 | 12.0 | 0.00 | 0.36 | 0.00 | 68 | 1017.5 |
| 20260508130045 | 62 | 344 | 2.0 | 9.0 | 0.00 | 0.36 | 0.00 | 72 | 1017.2 |
| 20260508124540 | 60 | 5 | 4.0 | 11.0 | 0.00 | 0.36 | 0.00 | 74 | 1017.3 |
| 20260508123057 | 60 | 34 | 2.0 | 9.0 | 0.00 | 0.36 | 0.00 | 76 | 1017.2 |
| 20260508121540 | 59 | 355 | 3.0 | 6.0 | 0.00 | 0.36 | 0.00 | 82 | 1017.1 |
| 20260508120047 | 58 | 11 | 2.0 | 5.0 | 0.00 | 0.36 | 0.00 | 86 | 1016.9 |
| 20260508114546 | 57 | 351 | 1.0 | 4.0 | 0.00 | 0.46 | 0.00 | 88 | 1016.5 |
| 20260508113059 | 56 | 360 | 1.0 | 2.0 | 0.00 | 0.46 | 0.00 | 90 | 1016.2 |
| 20260508111544 | 54 | 0 | 0.0 | 1.0 | 0.00 | 0.46 | 0.00 | 91 | 1016.1 |
| 20260508110050 | 53 | 0 | 0.0 | 1.0 | 0.00 | 0.46 | 0.00 | 90 | 1015.7 |
| 20260508104544 | 53 | 0 | 0.0 | 0.0 | 0.00 | 0.48 | 0.00 | 89 | 1015.4 |
| 20260508103047 | 54 | 0 | 0.0 | 0.0 | 0.00 | 0.48 | 0.00 | 89 | 1015.1 |
| 20260508101544 | 54 | 0 | 0.0 | 0.0 | 0.00 | 0.48 | 0.00 | 89 | 1015.0 |
| 20260508100043 | 55 | 0 | 0.0 | 0.0 | 0.00 | 0.48 | 0.00 | 89 | 1014.8 |
| 20260508094541 | 55 | 0 | 0.0 | 0.0 | 0.00 | 0.52 | 0.00 | 89 | 1014.8 |
| 20260508093041 | 55 | 0 | 0.0 | 2.0 | 0.00 | 0.52 | 0.00 | 89 | 1014.6 |
| 20260508091558 | 56 | 0 | 0.0 | 3.0 | 0.00 | 0.52 | 0.00 | 89 | 1014.8 |
| 20260508090104 | 56 | 351 | 0.0 | 2.0 | 0.00 | 0.52 | 0.00 | 89 | 1014.6 |
| 20260508084539 | 56 | 0 | 0.0 | 1.0 | 0.00 | 0.52 | 0.00 | 89 | 1014.6 |
| 20260508083043 | 55 | 0 | 0.0 | 0.0 | 0.00 | 0.52 | 0.00 | 88 | 1014.4 |
| 20260508081541 | 56 | 0 | 0.0 | 1.0 | 0.00 | 0.52 | 0.00 | 88 | 1014.3 |
| 20260508080040 | 56 | 0 | 0.0 | 0.0 | 0.00 | 0.52 | 0.00 | 87 | 1014.2 |
| 20260508074544 | 56 | 0 | 0.0 | 0.0 | 0.00 | 0.52 | 0.00 | 86 | 1014.1 |
| 20260508073040 | 57 | 0 | 0.0 | 1.0 | 0.00 | 0.52 | 0.00 | 86 | 1013.7 |
| 20260508071552 | 57 | 0 | 0.0 | 2.0 | 0.00 | 0.52 | 0.00 | 86 | 1013.7 |
| 20260508070044 | 57 | 0 | 0.0 | 2.0 | 0.00 | 0.52 | 0.00 | 85 | 1013.6 |
| 20260508064543 | 58 | 344 | 0.0 | 3.0 | 0.00 | 0.52 | 0.00 | 85 | 1013.6 |
| 20260508063041 | 58 | 350 | 0.0 | 3.0 | 0.00 | 0.52 | 0.00 | 84 | 1014.0 |
| 20260508061540 | 59 | 0 | 0.0 | 2.0 | 0.00 | 0.52 | 0.00 | 84 | 1014.0 |
| 20260508060040 | 59 | 0 | 0.0 | 4.0 | 0.00 | 0.52 | 0.00 | 83 | 1013.9 |
| 20260508054537 | 59 | 0 | 0.0 | 4.0 | 0.00 | 0.52 | 0.00 | 83 | 1014.0 |
| 20260508053109 | 60 | 346 | 0.0 | 3.0 | 0.00 | 0.52 | 0.00 | 82 | 1013.9 |
| 20260508051545 | 60 | 329 | 0.0 | 1.0 | 0.00 | 0.52 | 0.00 | 81 | 1014.0 |
| 20260508050042 | 61 | 345 | 1.0 | 5.0 | 0.00 | 0.52 | 0.00 | 80 | 1013.8 |
| 20260508044540 | 62 | 355 | 2.0 | 9.0 | 0.00 | 0.71 | 0.00 | 78 | 1013.6 |
| 20260508043037 | 62 | 331 | 2.0 | 8.0 | 0.00 | 0.71 | 0.00 | 78 | 1013.3 |
| 20260508041610 | 62 | 336 | 4.0 | 10.0 | 0.00 | 0.71 | 0.00 | 79 | 1013.3 |
| 20260508040104 | 63 | 304 | 3.0 | 8.0 | 0.00 | 0.71 | 0.00 | 80 | 1013.3 |
| 20260508034541 | 63 | 355 | 2.0 | 10.0 | 0.00 | 0.92 | 0.71 | 79 | 1013.3 |
| 20260508033040 | 63 | 320 | 3.0 | 9.0 | 0.00 | 0.92 | 0.71 | 80 | 1013.1 |
| 20260508031546 | 64 | 355 | 4.0 | 13.0 | 0.00 | 0.92 | 0.71 | 80 | 1012.7 |
| 20260508030044 | 66 | 5 | 3.0 | 10.0 | 0.00 | 0.92 | 0.71 | 79 | 1012.6 |
| 20260508024546 | 68 | 333 | 3.0 | 9.0 | 0.00 | 0.92 | 0.71 | 80 | 1012.2 |
| 20260508023041 | 68 | 0 | 0.0 | 0.0 | 0.00 | 0.92 | 0.71 | 84 | 1011.3 |
| 20260508021544 | 69 | 0 | 0.0 | 2.0 | 0.00 | 0.92 | 0.71 | 84 | 1011.0 |
| 20260508020050 | 69 | 0 | 0.0 | 1.0 | 0.00 | 0.92 | 0.71 | 85 | 1010.8 |
| 20260508014546 | 70 | 0 | 0.0 | 2.0 | 0.00 | 0.92 | 0.71 | 84 | 1010.2 |
| 20260508013048 | 70 | 0 | 0.0 | 2.0 | 0.00 | 0.92 | 0.71 | 84 | 1010.0 |
| 20260508011551 | 70 | 0 | 0.0 | 2.0 | 0.00 | 0.92 | 0.71 | 84 | 1009.7 |
| 20260508010039 | 71 | 0 | 0.0 | 1.0 | 0.00 | 0.92 | 0.71 | 83 | 1009.5 |
| 20260508004543 | 72 | 0 | 0.0 | 1.0 | 0.00 | 0.92 | 0.71 | 81 | 1009.4 |
| 20260508003044 | 72 | 0 | 0.0 | 2.0 | 0.00 | 0.92 | 0.71 | 80 | 1009.1 |
| 20260508001542 | 73 | 134 | 0.0 | 2.0 | 0.00 | 0.92 | 0.71 | 78 | 1008.9 |
| 20260508000044 | 74 | 0 | 0.0 | 1.0 | 0.00 | 0.92 | 0.71 | 76 | 1008.3 |
| 20260507234541 | 75 | 0 | 0.0 | 3.0 | 0.00 | 0.92 | 0.71 | 75 | 1008.3 |
| 20260507233054 | 76 | 200 | 1.0 | 8.0 | 0.00 | 0.92 | 0.71 | 74 | 1008.1 |
| 20260507231544 | 76 | 192 | 0.0 | 5.0 | 0.00 | 0.92 | 0.71 | 74 | 1008.0 |
| 20260507230049 | 77 | 0 | 1.0 | 7.0 | 0.00 | 0.92 | 0.71 | 74 | 1008.0 |